sensor_id;sensor_type;location;lat;lon;timestamp;P1;durP1;ratioP1;P2;durP2;ratioP2
75766;SDS011;64378;55.596;13.014;2023-02-25T00:02:01;2.07;;;0.40;;
75766;SDS011;64378;55.596;13.014;2023-02-25T00:04:27;2.57;;;0.60;;
75766;SDS011;64378;55.596;13.014;2023-02-25T00:06:52;1.50;;;0.50;;
75766;SDS011;64378;55.596;13.014;2023-02-25T00:09:19;2.00;;;0.57;;
75766;SDS011;64378;55.596;13.014;2023-02-25T00:11:45;2.13;;;0.40;;
75766;SDS011;64378;55.596;13.014;2023-02-25T00:14:10;2.07;;;0.50;;
75766;SDS011;64378;55.596;13.014;2023-02-25T00:16:35;2.00;;;0.40;;
75766;SDS011;64378;55.596;13.014;2023-02-25T00:19:01;2.40;;;0.50;;
75766;SDS011;64378;55.596;13.014;2023-02-25T00:21:28;1.77;;;0.40;;
75766;SDS011;64378;55.596;13.014;2023-02-25T00:23:53;2.13;;;0.50;;
75766;SDS011;64378;55.596;13.014;2023-02-25T00:26:19;1.83;;;0.50;;
75766;SDS011;64378;55.596;13.014;2023-02-25T00:28:45;1.95;;;0.40;;
75766;SDS011;64378;55.596;13.014;2023-02-25T00:31:13;1.52;;;0.30;;
75766;SDS011;64378;55.596;13.014;2023-02-25T00:33:41;1.90;;;0.40;;
75766;SDS011;64378;55.596;13.014;2023-02-25T00:36:08;1.40;;;0.50;;
75766;SDS011;64378;55.596;13.014;2023-02-25T00:38:44;2.30;;;0.50;;
75766;SDS011;64378;55.596;13.014;2023-02-25T00:41:13;1.57;;;0.40;;
75766;SDS011;64378;55.596;13.014;2023-02-25T00:43:40;1.98;;;0.50;;
75766;SDS011;64378;55.596;13.014;2023-02-25T00:46:08;2.27;;;0.50;;
75766;SDS011;64378;55.596;13.014;2023-02-25T00:48:34;2.28;;;0.40;;
75766;SDS011;64378;55.596;13.014;2023-02-25T00:51:04;2.80;;;0.50;;
75766;SDS011;64378;55.596;13.014;2023-02-25T00:53:34;1.40;;;0.50;;
75766;SDS011;64378;55.596;13.014;2023-02-25T00:56:01;2.03;;;0.40;;
75766;SDS011;64378;55.596;13.014;2023-02-25T00:58:27;1.93;;;0.40;;
75766;SDS011;64378;55.596;13.014;2023-02-25T01:00:52;1.95;;;0.40;;
75766;SDS011;64378;55.596;13.014;2023-02-25T01:03:18;1.57;;;0.40;;
75766;SDS011;64378;55.596;13.014;2023-02-25T01:05:43;1.83;;;0.60;;
75766;SDS011;64378;55.596;13.014;2023-02-25T01:08:13;1.40;;;0.30;;
75766;SDS011;64378;55.596;13.014;2023-02-25T01:10:42;1.55;;;0.40;;
75766;SDS011;64378;55.596;13.014;2023-02-25T01:13:08;3.13;;;0.40;;
75766;SDS011;64378;55.596;13.014;2023-02-25T01:15:33;1.30;;;0.40;;
75766;SDS011;64378;55.596;13.014;2023-02-25T01:17:59;2.27;;;0.37;;
75766;SDS011;64378;55.596;13.014;2023-02-25T01:20:24;2.63;;;0.47;;
75766;SDS011;64378;55.596;13.014;2023-02-25T01:22:50;0.90;;;0.30;;
75766;SDS011;64378;55.596;13.014;2023-02-25T01:25:15;1.70;;;0.45;;
75766;SDS011;64378;55.596;13.014;2023-02-25T01:27:41;2.13;;;0.50;;
75766;SDS011;64378;55.596;13.014;2023-02-25T01:30:07;2.13;;;0.50;;
75766;SDS011;64378;55.596;13.014;2023-02-25T01:32:34;1.95;;;0.40;;
75766;SDS011;64378;55.596;13.014;2023-02-25T01:34:59;1.33;;;0.30;;
75766;SDS011;64378;55.596;13.014;2023-02-25T01:37:25;1.40;;;0.30;;
75766;SDS011;64378;55.596;13.014;2023-02-25T01:39:50;2.07;;;0.57;;
75766;SDS011;64378;55.596;13.014;2023-02-25T01:42:16;1.00;;;0.30;;
75766;SDS011;64378;55.596;13.014;2023-02-25T01:47:41;2.38;;;0.40;;
75766;SDS011;64378;55.596;13.014;2023-02-25T01:50:10;2.00;;;0.50;;
75766;SDS011;64378;55.596;13.014;2023-02-25T01:52:36;1.38;;;0.32;;
75766;SDS011;64378;55.596;13.014;2023-02-25T01:55:05;2.00;;;0.50;;
75766;SDS011;64378;55.596;13.014;2023-02-25T01:57:33;1.77;;;0.40;;
75766;SDS011;64378;55.596;13.014;2023-02-25T01:59:59;2.03;;;0.40;;
75766;SDS011;64378;55.596;13.014;2023-02-25T02:02:24;1.80;;;0.40;;
75766;SDS011;64378;55.596;13.014;2023-02-25T02:04:52;1.50;;;0.40;;
75766;SDS011;64378;55.596;13.014;2023-02-25T02:07:18;0.98;;;0.30;;
75766;SDS011;64378;55.596;13.014;2023-02-25T02:09:46;1.58;;;0.43;;
75766;SDS011;64378;55.596;13.014;2023-02-25T02:12:21;1.58;;;0.40;;
75766;SDS011;64378;55.596;13.014;2023-02-25T02:14:53;1.42;;;0.30;;
75766;SDS011;64378;55.596;13.014;2023-02-25T02:17:55;1.17;;;0.30;;
75766;SDS011;64378;55.596;13.014;2023-02-25T02:20:24;1.90;;;0.30;;
75766;SDS011;64378;55.596;13.014;2023-02-25T02:29:10;1.85;;;0.40;;
75766;SDS011;64378;55.596;13.014;2023-02-25T02:31:31;0.90;;;0.30;;
75766;SDS011;64378;55.596;13.014;2023-02-25T02:42:42;1.30;;;0.35;;
75766;SDS011;64378;55.596;13.014;2023-02-25T02:45:21;1.10;;;0.30;;
75766;SDS011;64378;55.596;13.014;2023-02-25T02:47:54;1.23;;;0.30;;
75766;SDS011;64378;55.596;13.014;2023-02-25T02:50:37;1.30;;;0.30;;
75766;SDS011;64378;55.596;13.014;2023-02-25T02:53:09;0.60;;;0.20;;
75766;SDS011;64378;55.596;13.014;2023-02-25T02:55:39;1.35;;;0.35;;
75766;SDS011;64378;55.596;13.014;2023-02-25T02:58:12;0.90;;;0.30;;
75766;SDS011;64378;55.596;13.014;2023-02-25T03:00:47;1.20;;;0.33;;
75766;SDS011;64378;55.596;13.014;2023-02-25T03:03:21;4.03;;;0.40;;
75766;SDS011;64378;55.596;13.014;2023-02-25T03:06:00;1.20;;;0.30;;
75766;SDS011;64378;55.596;13.014;2023-02-25T03:08:28;1.30;;;0.30;;
75766;SDS011;64378;55.596;13.014;2023-02-25T03:10:56;1.67;;;0.30;;
75766;SDS011;64378;55.596;13.014;2023-02-25T03:13:21;1.03;;;0.30;;
75766;SDS011;64378;55.596;13.014;2023-02-25T03:15:47;0.80;;;0.30;;
75766;SDS011;64378;55.596;13.014;2023-02-25T03:18:35;1.25;;;0.30;;
75766;SDS011;64378;55.596;13.014;2023-02-25T03:21:06;1.45;;;0.30;;
75766;SDS011;64378;55.596;13.014;2023-02-25T03:23:38;1.10;;;0.30;;
75766;SDS011;64378;55.596;13.014;2023-02-25T03:28:54;2.00;;;0.40;;
75766;SDS011;64378;55.596;13.014;2023-02-25T03:33:53;1.45;;;0.28;;
75766;SDS011;64378;55.596;13.014;2023-02-25T03:36:29;0.70;;;0.30;;
75766;SDS011;64378;55.596;13.014;2023-02-25T03:38:58;1.35;;;0.30;;
75766;SDS011;64378;55.596;13.014;2023-02-25T03:41:31;1.13;;;0.30;;
75766;SDS011;64378;55.596;13.014;2023-02-25T03:43:59;1.10;;;0.30;;
75766;SDS011;64378;55.596;13.014;2023-02-25T03:46:28;1.00;;;0.30;;
75766;SDS011;64378;55.596;13.014;2023-02-25T03:48:55;1.17;;;0.30;;
75766;SDS011;64378;55.596;13.014;2023-02-25T03:51:24;1.13;;;0.30;;
75766;SDS011;64378;55.596;13.014;2023-02-25T03:53:55;1.10;;;0.30;;
75766;SDS011;64378;55.596;13.014;2023-02-25T03:56:20;0.95;;;0.30;;
75766;SDS011;64378;55.596;13.014;2023-02-25T03:58:46;0.83;;;0.30;;
75766;SDS011;64378;55.596;13.014;2023-02-25T04:01:14;1.00;;;0.30;;
75766;SDS011;64378;55.596;13.014;2023-02-25T04:03:48;0.40;;;0.20;;
75766;SDS011;64378;55.596;13.014;2023-02-25T04:06:14;1.00;;;0.30;;
75766;SDS011;64378;55.596;13.014;2023-02-25T04:08:40;0.70;;;0.20;;
75766;SDS011;64378;55.596;13.014;2023-02-25T04:11:06;0.70;;;0.30;;
75766;SDS011;64378;55.596;13.014;2023-02-25T04:13:31;0.90;;;0.30;;
75766;SDS011;64378;55.596;13.014;2023-02-25T04:15:57;0.90;;;0.30;;
75766;SDS011;64378;55.596;13.014;2023-02-25T04:18:22;1.27;;;0.30;;
75766;SDS011;64378;55.596;13.014;2023-02-25T04:20:49;0.60;;;0.20;;
75766;SDS011;64378;55.596;13.014;2023-02-25T04:23:15;1.10;;;0.28;;
75766;SDS011;64378;55.596;13.014;2023-02-25T04:25:40;0.60;;;0.20;;
75766;SDS011;64378;55.596;13.014;2023-02-25T04:28:07;1.98;;;0.30;;
75766;SDS011;64378;55.596;13.014;2023-02-25T04:30:33;0.85;;;0.30;;
75766;SDS011;64378;55.596;13.014;2023-02-25T04:32:59;0.87;;;0.23;;
75766;SDS011;64378;55.596;13.014;2023-02-25T04:35:24;0.70;;;0.20;;
75766;SDS011;64378;55.596;13.014;2023-02-25T04:37:50;1.10;;;0.20;;
75766;SDS011;64378;55.596;13.014;2023-02-25T04:40:16;1.30;;;0.20;;
75766;SDS011;64378;55.596;13.014;2023-02-25T04:42:43;0.70;;;0.30;;
75766;SDS011;64378;55.596;13.014;2023-02-25T04:45:09;1.02;;;0.20;;
75766;SDS011;64378;55.596;13.014;2023-02-25T04:47:36;1.20;;;0.30;;
75766;SDS011;64378;55.596;13.014;2023-02-25T04:50:01;1.10;;;0.40;;
75766;SDS011;64378;55.596;13.014;2023-02-25T04:52:27;1.10;;;0.20;;
75766;SDS011;64378;55.596;13.014;2023-02-25T04:54:52;1.10;;;0.20;;
75766;SDS011;64378;55.596;13.014;2023-02-25T04:57:18;0.97;;;0.20;;
75766;SDS011;64378;55.596;13.014;2023-02-25T04:59:43;0.63;;;0.30;;
75766;SDS011;64378;55.596;13.014;2023-02-25T05:02:09;0.60;;;0.20;;
75766;SDS011;64378;55.596;13.014;2023-02-25T05:04:35;1.08;;;0.28;;
75766;SDS011;64378;55.596;13.014;2023-02-25T05:07:01;1.17;;;0.20;;
75766;SDS011;64378;55.596;13.014;2023-02-25T05:09:27;1.15;;;0.30;;
75766;SDS011;64378;55.596;13.014;2023-02-25T05:11:52;0.85;;;0.30;;
75766;SDS011;64378;55.596;13.014;2023-02-25T05:14:18;1.20;;;0.30;;
75766;SDS011;64378;55.596;13.014;2023-02-25T05:16:43;1.00;;;0.23;;
75766;SDS011;64378;55.596;13.014;2023-02-25T05:19:16;1.00;;;0.30;;
75766;SDS011;64378;55.596;13.014;2023-02-25T05:21:45;0.57;;;0.20;;
75766;SDS011;64378;55.596;13.014;2023-02-25T05:24:11;1.30;;;0.30;;
75766;SDS011;64378;55.596;13.014;2023-02-25T05:26:36;0.77;;;0.30;;
75766;SDS011;64378;55.596;13.014;2023-02-25T05:29:02;1.00;;;0.30;;
75766;SDS011;64378;55.596;13.014;2023-02-25T05:31:28;0.93;;;0.20;;
75766;SDS011;64378;55.596;13.014;2023-02-25T05:33:53;1.47;;;0.30;;
75766;SDS011;64378;55.596;13.014;2023-02-25T05:36:18;1.13;;;0.20;;
75766;SDS011;64378;55.596;13.014;2023-02-25T05:38:44;0.77;;;0.30;;
75766;SDS011;64378;55.596;13.014;2023-02-25T05:41:10;0.95;;;0.20;;
75766;SDS011;64378;55.596;13.014;2023-02-25T05:43:37;1.15;;;0.30;;
75766;SDS011;64378;55.596;13.014;2023-02-25T05:46:03;0.95;;;0.28;;
75766;SDS011;64378;55.596;13.014;2023-02-25T05:48:33;0.88;;;0.30;;
75766;SDS011;64378;55.596;13.014;2023-02-25T05:51:05;0.60;;;0.20;;
75766;SDS011;64378;55.596;13.014;2023-02-25T05:53:32;0.80;;;0.20;;
75766;SDS011;64378;55.596;13.014;2023-02-25T05:55:58;2.30;;;0.20;;
75766;SDS011;64378;55.596;13.014;2023-02-25T05:58:27;1.10;;;0.30;;
75766;SDS011;64378;55.596;13.014;2023-02-25T06:00:52;1.40;;;0.30;;
75766;SDS011;64378;55.596;13.014;2023-02-25T06:03:18;1.40;;;0.30;;
75766;SDS011;64378;55.596;13.014;2023-02-25T06:05:43;2.37;;;0.27;;
75766;SDS011;64378;55.596;13.014;2023-02-25T06:08:09;0.90;;;0.20;;
75766;SDS011;64378;55.596;13.014;2023-02-25T06:10:35;0.80;;;0.20;;
75766;SDS011;64378;55.596;13.014;2023-02-25T06:13:03;0.75;;;0.20;;
75766;SDS011;64378;55.596;13.014;2023-02-25T06:15:29;0.80;;;0.20;;
75766;SDS011;64378;55.596;13.014;2023-02-25T06:17:54;0.60;;;0.20;;
75766;SDS011;64378;55.596;13.014;2023-02-25T06:20:20;1.10;;;0.23;;
75766;SDS011;64378;55.596;13.014;2023-02-25T06:22:51;0.47;;;0.20;;
75766;SDS011;64378;55.596;13.014;2023-02-25T06:25:17;0.50;;;0.30;;
75766;SDS011;64378;55.596;13.014;2023-02-25T06:27:42;0.95;;;0.28;;
75766;SDS011;64378;55.596;13.014;2023-02-25T06:30:08;0.70;;;0.20;;
75766;SDS011;64378;55.596;13.014;2023-02-25T06:32:34;0.90;;;0.20;;
75766;SDS011;64378;55.596;13.014;2023-02-25T06:34:59;1.07;;;0.20;;
75766;SDS011;64378;55.596;13.014;2023-02-25T06:37:25;0.70;;;0.20;;
75766;SDS011;64378;55.596;13.014;2023-02-25T06:39:51;1.60;;;0.20;;
75766;SDS011;64378;55.596;13.014;2023-02-25T06:42:17;0.80;;;0.20;;
75766;SDS011;64378;55.596;13.014;2023-02-25T06:44:42;0.57;;;0.20;;
75766;SDS011;64378;55.596;13.014;2023-02-25T06:47:07;0.98;;;0.20;;
75766;SDS011;64378;55.596;13.014;2023-02-25T06:49:33;1.00;;;0.20;;
75766;SDS011;64378;55.596;13.014;2023-02-25T06:51:58;0.60;;;0.20;;
75766;SDS011;64378;55.596;13.014;2023-02-25T06:54:24;0.73;;;0.20;;
75766;SDS011;64378;55.596;13.014;2023-02-25T06:56:49;0.60;;;0.20;;
75766;SDS011;64378;55.596;13.014;2023-02-25T06:59:17;0.63;;;0.20;;
75766;SDS011;64378;55.596;13.014;2023-02-25T07:01:43;0.90;;;0.22;;
75766;SDS011;64378;55.596;13.014;2023-02-25T07:04:09;0.70;;;0.20;;
75766;SDS011;64378;55.596;13.014;2023-02-25T07:06:39;0.98;;;0.20;;
75766;SDS011;64378;55.596;13.014;2023-02-25T07:09:05;0.70;;;0.20;;
75766;SDS011;64378;55.596;13.014;2023-02-25T07:11:30;0.70;;;0.30;;
75766;SDS011;64378;55.596;13.014;2023-02-25T07:13:58;1.05;;;0.20;;
75766;SDS011;64378;55.596;13.014;2023-02-25T07:16:25;0.65;;;0.20;;
75766;SDS011;64378;55.596;13.014;2023-02-25T07:18:51;0.90;;;0.20;;
75766;SDS011;64378;55.596;13.014;2023-02-25T07:21:17;1.17;;;0.20;;
75766;SDS011;64378;55.596;13.014;2023-02-25T07:23:43;3.83;;;0.38;;
75766;SDS011;64378;55.596;13.014;2023-02-25T07:26:09;1.50;;;0.30;;
75766;SDS011;64378;55.596;13.014;2023-02-25T07:28:36;1.45;;;0.20;;
75766;SDS011;64378;55.596;13.014;2023-02-25T07:31:02;1.50;;;0.20;;
75766;SDS011;64378;55.596;13.014;2023-02-25T07:33:33;2.05;;;0.28;;
75766;SDS011;64378;55.596;13.014;2023-02-25T07:35:59;2.00;;;0.30;;
75766;SDS011;64378;55.596;13.014;2023-02-25T07:38:25;1.17;;;0.20;;
75766;SDS011;64378;55.596;13.014;2023-02-25T07:40:50;1.93;;;0.23;;
75766;SDS011;64378;55.596;13.014;2023-02-25T07:43:16;1.33;;;0.27;;
75766;SDS011;64378;55.596;13.014;2023-02-25T07:45:41;1.10;;;0.20;;
75766;SDS011;64378;55.596;13.014;2023-02-25T07:48:06;0.63;;;0.20;;
75766;SDS011;64378;55.596;13.014;2023-02-25T07:50:32;0.83;;;0.20;;
75766;SDS011;64378;55.596;13.014;2023-02-25T07:52:58;1.25;;;0.20;;
75766;SDS011;64378;55.596;13.014;2023-02-25T07:55:23;1.03;;;0.30;;
75766;SDS011;64378;55.596;13.014;2023-02-25T07:57:49;1.20;;;0.27;;
75766;SDS011;64378;55.596;13.014;2023-02-25T08:00:15;2.90;;;0.30;;
75766;SDS011;64378;55.596;13.014;2023-02-25T08:02:42;1.85;;;0.32;;
75766;SDS011;64378;55.596;13.014;2023-02-25T08:05:09;1.38;;;0.25;;
75766;SDS011;64378;55.596;13.014;2023-02-25T08:07:35;1.58;;;0.20;;
75766;SDS011;64378;55.596;13.014;2023-02-25T08:10:00;1.10;;;0.20;;
75766;SDS011;64378;55.596;13.014;2023-02-25T08:12:26;2.10;;;0.20;;
75766;SDS011;64378;55.596;13.014;2023-02-25T08:14:51;0.70;;;0.30;;
75766;SDS011;64378;55.596;13.014;2023-02-25T08:17:17;1.60;;;0.30;;
75766;SDS011;64378;55.596;13.014;2023-02-25T08:19:42;1.07;;;0.27;;
75766;SDS011;64378;55.596;13.014;2023-02-25T08:22:08;1.42;;;0.30;;
75766;SDS011;64378;55.596;13.014;2023-02-25T08:24:39;1.15;;;0.30;;
75766;SDS011;64378;55.596;13.014;2023-02-25T08:27:05;1.10;;;0.30;;
75766;SDS011;64378;55.596;13.014;2023-02-25T08:29:36;0.70;;;0.20;;
75766;SDS011;64378;55.596;13.014;2023-02-25T08:32:04;1.05;;;0.20;;
75766;SDS011;64378;55.596;13.014;2023-02-25T08:34:30;0.80;;;0.30;;
75766;SDS011;64378;55.596;13.014;2023-02-25T08:36:55;1.23;;;0.30;;
75766;SDS011;64378;55.596;13.014;2023-02-25T08:39:21;1.07;;;0.27;;
75766;SDS011;64378;55.596;13.014;2023-02-25T08:41:47;1.23;;;0.30;;
75766;SDS011;64378;55.596;13.014;2023-02-25T08:44:12;1.37;;;0.30;;
75766;SDS011;64378;55.596;13.014;2023-02-25T08:46:37;2.00;;;0.30;;
75766;SDS011;64378;55.596;13.014;2023-02-25T08:49:04;1.77;;;0.30;;
75766;SDS011;64378;55.596;13.014;2023-02-25T08:51:31;0.75;;;0.30;;
75766;SDS011;64378;55.596;13.014;2023-02-25T08:54:01;1.20;;;0.20;;
75766;SDS011;64378;55.596;13.014;2023-02-25T08:56:28;1.23;;;0.20;;
75766;SDS011;64378;55.596;13.014;2023-02-25T08:58:54;1.83;;;0.30;;
75766;SDS011;64378;55.596;13.014;2023-02-25T09:01:19;1.00;;;0.20;;
75766;SDS011;64378;55.596;13.014;2023-02-25T09:03:45;1.00;;;0.30;;
75766;SDS011;64378;55.596;13.014;2023-02-25T09:06:22;1.20;;;0.30;;
75766;SDS011;64378;55.596;13.014;2023-02-25T09:08:54;1.88;;;0.30;;
75766;SDS011;64378;55.596;13.014;2023-02-25T09:11:20;1.15;;;0.30;;
75766;SDS011;64378;55.596;13.014;2023-02-25T09:13:47;1.35;;;0.30;;
75766;SDS011;64378;55.596;13.014;2023-02-25T09:16:12;3.43;;;0.40;;
75766;SDS011;64378;55.596;13.014;2023-02-25T09:18:41;1.30;;;0.30;;
75766;SDS011;64378;55.596;13.014;2023-02-25T09:21:07;2.40;;;0.30;;
75766;SDS011;64378;55.596;13.014;2023-02-25T09:23:34;1.30;;;0.30;;
75766;SDS011;64378;55.596;13.014;2023-02-25T09:26:01;1.98;;;0.30;;
75766;SDS011;64378;55.596;13.014;2023-02-25T09:28:28;1.15;;;0.30;;
75766;SDS011;64378;55.596;13.014;2023-02-25T09:30:53;1.87;;;0.30;;
75766;SDS011;64378;55.596;13.014;2023-02-25T09:33:20;1.30;;;0.30;;
75766;SDS011;64378;55.596;13.014;2023-02-25T09:35:45;1.00;;;0.20;;
75766;SDS011;64378;55.596;13.014;2023-02-25T09:38:11;1.53;;;0.27;;
75766;SDS011;64378;55.596;13.014;2023-02-25T09:40:37;1.52;;;0.30;;
75766;SDS011;64378;55.596;13.014;2023-02-25T09:43:15;0.93;;;0.30;;
75766;SDS011;64378;55.596;13.014;2023-02-25T09:46:10;0.95;;;0.20;;
75766;SDS011;64378;55.596;13.014;2023-02-25T09:48:41;2.63;;;0.30;;
75766;SDS011;64378;55.596;13.014;2023-02-25T09:51:19;2.38;;;0.35;;
75766;SDS011;64378;55.596;13.014;2023-02-25T09:53:53;1.20;;;0.30;;
75766;SDS011;64378;55.596;13.014;2023-02-25T09:56:25;1.13;;;0.38;;
75766;SDS011;64378;55.596;13.014;2023-02-25T09:58:53;1.15;;;0.20;;
75766;SDS011;64378;55.596;13.014;2023-02-25T10:07:00;4.88;;;0.60;;
75766;SDS011;64378;55.596;13.014;2023-02-25T10:09:55;8.63;;;1.03;;
75766;SDS011;64378;55.596;13.014;2023-02-25T10:15:27;6.45;;;1.08;;
75766;SDS011;64378;55.596;13.014;2023-02-25T10:26:32;9.30;;;0.80;;
75766;SDS011;64378;55.596;13.014;2023-02-25T10:29:04;8.75;;;0.90;;
75766;SDS011;64378;55.596;13.014;2023-02-25T10:31:31;9.70;;;0.90;;
75766;SDS011;64378;55.596;13.014;2023-02-25T10:33:58;9.48;;;0.85;;
75766;SDS011;64378;55.596;13.014;2023-02-25T10:36:40;8.57;;;0.80;;
75766;SDS011;64378;55.596;13.014;2023-02-25T10:39:10;12.27;;;0.98;;
75766;SDS011;64378;55.596;13.014;2023-02-25T10:41:35;8.40;;;0.83;;
75766;SDS011;64378;55.596;13.014;2023-02-25T10:44:01;8.97;;;1.10;;
75766;SDS011;64378;55.596;13.014;2023-02-25T10:49:17;6.80;;;0.83;;
75766;SDS011;64378;55.596;13.014;2023-02-25T10:52:06;7.45;;;0.63;;
75766;SDS011;64378;55.596;13.014;2023-02-25T10:54:47;7.18;;;0.75;;
75766;SDS011;64378;55.596;13.014;2023-02-25T10:57:24;7.20;;;0.80;;
75766;SDS011;64378;55.596;13.014;2023-02-25T11:00:02;5.95;;;0.75;;
75766;SDS011;64378;55.596;13.014;2023-02-25T11:02:32;6.82;;;0.70;;
75766;SDS011;64378;55.596;13.014;2023-02-25T11:05:05;6.28;;;0.77;;
75766;SDS011;64378;55.596;13.014;2023-02-25T11:07:33;6.07;;;0.80;;
75766;SDS011;64378;55.596;13.014;2023-02-25T11:10:14;6.40;;;0.52;;
75766;SDS011;64378;55.596;13.014;2023-02-25T11:12:47;5.40;;;0.70;;
75766;SDS011;64378;55.596;13.014;2023-02-25T11:17:52;5.33;;;0.80;;
75766;SDS011;64378;55.596;13.014;2023-02-25T11:20:23;6.17;;;0.70;;
75766;SDS011;64378;55.596;13.014;2023-02-25T11:22:51;5.03;;;0.63;;
75766;SDS011;64378;55.596;13.014;2023-02-25T11:25:19;4.70;;;0.73;;
75766;SDS011;64378;55.596;13.014;2023-02-25T11:27:51;6.43;;;0.60;;
75766;SDS011;64378;55.596;13.014;2023-02-25T11:30:33;3.40;;;0.68;;
75766;SDS011;64378;55.596;13.014;2023-02-25T11:33:02;5.30;;;0.50;;
75766;SDS011;64378;55.596;13.014;2023-02-25T11:35:33;4.68;;;0.55;;
75766;SDS011;64378;55.596;13.014;2023-02-25T11:40:48;4.75;;;0.60;;
75766;SDS011;64378;55.596;13.014;2023-02-25T11:43:19;4.03;;;0.50;;
75766;SDS011;64378;55.596;13.014;2023-02-25T11:54:09;4.15;;;0.45;;
75766;SDS011;64378;55.596;13.014;2023-02-25T12:08:32;4.05;;;0.50;;
75766;SDS011;64378;55.596;13.014;2023-02-25T12:19:03;1.77;;;0.50;;
75766;SDS011;64378;55.596;13.014;2023-02-25T12:24:21;3.83;;;0.50;;
75766;SDS011;64378;55.596;13.014;2023-02-25T12:57:35;3.47;;;0.40;;
75766;SDS011;64378;55.596;13.014;2023-02-25T13:00:27;3.13;;;0.40;;
75766;SDS011;64378;55.596;13.014;2023-02-25T13:05:58;2.65;;;0.50;;
75766;SDS011;64378;55.596;13.014;2023-02-25T13:08:41;2.63;;;0.40;;
75766;SDS011;64378;55.596;13.014;2023-02-25T13:11:18;2.67;;;0.50;;
75766;SDS011;64378;55.596;13.014;2023-02-25T13:16:26;3.17;;;0.43;;
75766;SDS011;64378;55.596;13.014;2023-02-25T13:38:40;4.05;;;0.45;;
75766;SDS011;64378;55.596;13.014;2023-02-25T13:46:45;1.23;;;0.30;;
75766;SDS011;64378;55.596;13.014;2023-02-25T13:49:23;1.43;;;0.40;;
75766;SDS011;64378;55.596;13.014;2023-02-25T13:52:15;1.55;;;0.32;;
75766;SDS011;64378;55.596;13.014;2023-02-25T13:58:41;1.35;;;0.30;;
75766;SDS011;64378;55.596;13.014;2023-02-25T14:01:36;1.93;;;0.40;;
75766;SDS011;64378;55.596;13.014;2023-02-25T14:09:42;2.08;;;0.40;;
75766;SDS011;64378;55.596;13.014;2023-02-25T14:12:24;1.80;;;0.30;;
75766;SDS011;64378;55.596;13.014;2023-02-25T14:20:54;1.60;;;0.38;;
75766;SDS011;64378;55.596;13.014;2023-02-25T14:23:43;1.92;;;0.30;;
75766;SDS011;64378;55.596;13.014;2023-02-25T14:29:04;2.20;;;0.40;;
75766;SDS011;64378;55.596;13.014;2023-02-25T14:39:38;2.25;;;0.50;;
75766;SDS011;64378;55.596;13.014;2023-02-25T14:45:28;2.17;;;0.40;;
75766;SDS011;64378;55.596;13.014;2023-02-25T14:48:04;3.00;;;0.40;;
75766;SDS011;64378;55.596;13.014;2023-02-25T14:50:42;1.98;;;0.40;;
75766;SDS011;64378;55.596;13.014;2023-02-25T15:05:09;2.10;;;0.50;;
75766;SDS011;64378;55.596;13.014;2023-02-25T15:16:50;1.92;;;0.40;;
75766;SDS011;64378;55.596;13.014;2023-02-25T15:22:20;2.03;;;0.40;;
75766;SDS011;64378;55.596;13.014;2023-02-25T15:25:39;2.30;;;0.40;;
75766;SDS011;64378;55.596;13.014;2023-02-25T15:30:21;1.67;;;0.40;;
75766;SDS011;64378;55.596;13.014;2023-02-25T15:35:59;1.33;;;0.40;;
75766;SDS011;64378;55.596;13.014;2023-02-25T15:46:25;3.00;;;0.40;;
75766;SDS011;64378;55.596;13.014;2023-02-25T15:51:51;1.70;;;0.40;;
75766;SDS011;64378;55.596;13.014;2023-02-25T15:56:52;2.47;;;0.50;;
75766;SDS011;64378;55.596;13.014;2023-02-25T16:02:51;2.70;;;0.43;;
75766;SDS011;64378;55.596;13.014;2023-02-25T16:07:37;3.00;;;0.40;;
75766;SDS011;64378;55.596;13.014;2023-02-25T16:10:07;3.22;;;0.60;;
75766;SDS011;64378;55.596;13.014;2023-02-25T16:12:42;2.90;;;0.40;;
75766;SDS011;64378;55.596;13.014;2023-02-25T16:15:46;2.63;;;0.38;;
75766;SDS011;64378;55.596;13.014;2023-02-25T16:19:06;2.92;;;0.30;;
75766;SDS011;64378;55.596;13.014;2023-02-25T16:21:36;2.70;;;0.30;;
75766;SDS011;64378;55.596;13.014;2023-02-25T16:24:10;1.87;;;0.33;;
75766;SDS011;64378;55.596;13.014;2023-02-25T16:26:49;1.77;;;0.37;;
75766;SDS011;64378;55.596;13.014;2023-02-25T16:40:15;1.65;;;0.50;;
75766;SDS011;64378;55.596;13.014;2023-02-25T16:43:02;2.50;;;0.40;;
75766;SDS011;64378;55.596;13.014;2023-02-25T16:45:33;2.60;;;0.45;;
75766;SDS011;64378;55.596;13.014;2023-02-25T16:48:05;2.55;;;0.32;;
75766;SDS011;64378;55.596;13.014;2023-02-25T16:50:38;1.70;;;0.30;;
75766;SDS011;64378;55.596;13.014;2023-02-25T16:53:04;2.60;;;0.40;;
75766;SDS011;64378;55.596;13.014;2023-02-25T16:55:39;3.08;;;0.40;;
75766;SDS011;64378;55.596;13.014;2023-02-25T17:01:01;2.22;;;0.30;;
75766;SDS011;64378;55.596;13.014;2023-02-25T17:03:43;2.22;;;0.50;;
75766;SDS011;64378;55.596;13.014;2023-02-25T17:06:14;1.67;;;0.40;;
75766;SDS011;64378;55.596;13.014;2023-02-25T17:08:45;2.20;;;0.40;;
75766;SDS011;64378;55.596;13.014;2023-02-25T17:11:14;2.33;;;0.43;;
75766;SDS011;64378;55.596;13.014;2023-02-25T17:13:43;2.10;;;0.30;;
75766;SDS011;64378;55.596;13.014;2023-02-25T17:16:15;2.88;;;0.45;;
75766;SDS011;64378;55.596;13.014;2023-02-25T17:18:49;2.40;;;0.47;;
75766;SDS011;64378;55.596;13.014;2023-02-25T17:21:32;1.85;;;0.40;;
75766;SDS011;64378;55.596;13.014;2023-02-25T17:24:04;1.33;;;0.40;;
75766;SDS011;64378;55.596;13.014;2023-02-25T17:26:35;1.92;;;0.30;;
75766;SDS011;64378;55.596;13.014;2023-02-25T17:29:08;2.92;;;0.43;;
75766;SDS011;64378;55.596;13.014;2023-02-25T17:31:35;3.10;;;0.33;;
75766;SDS011;64378;55.596;13.014;2023-02-25T17:34:09;2.22;;;0.40;;
75766;SDS011;64378;55.596;13.014;2023-02-25T17:36:39;2.97;;;0.40;;
75766;SDS011;64378;55.596;13.014;2023-02-25T17:39:05;3.90;;;0.50;;
75766;SDS011;64378;55.596;13.014;2023-02-25T17:41:36;1.23;;;0.30;;
75766;SDS011;64378;55.596;13.014;2023-02-25T17:44:01;2.53;;;0.40;;
75766;SDS011;64378;55.596;13.014;2023-02-25T17:49:01;2.25;;;0.45;;
75766;SDS011;64378;55.596;13.014;2023-02-25T17:51:38;1.60;;;0.40;;
75766;SDS011;64378;55.596;13.014;2023-02-25T17:54:06;2.38;;;0.40;;
75766;SDS011;64378;55.596;13.014;2023-02-25T17:56:37;3.05;;;0.40;;
75766;SDS011;64378;55.596;13.014;2023-02-25T18:01:29;2.13;;;0.40;;
75766;SDS011;64378;55.596;13.014;2023-02-25T18:04:21;3.15;;;0.47;;
75766;SDS011;64378;55.596;13.014;2023-02-25T18:06:48;2.67;;;0.50;;
75766;SDS011;64378;55.596;13.014;2023-02-25T18:09:27;3.30;;;0.40;;
75766;SDS011;64378;55.596;13.014;2023-02-25T18:11:53;3.00;;;0.43;;
75766;SDS011;64378;55.596;13.014;2023-02-25T18:14:31;2.93;;;0.50;;
75766;SDS011;64378;55.596;13.014;2023-02-25T18:17:00;2.85;;;0.50;;
75766;SDS011;64378;55.596;13.014;2023-02-25T18:19:36;2.40;;;0.32;;
75766;SDS011;64378;55.596;13.014;2023-02-25T18:22:04;3.17;;;0.50;;
75766;SDS011;64378;55.596;13.014;2023-02-25T18:24:50;2.35;;;0.40;;
75766;SDS011;64378;55.596;13.014;2023-02-25T18:29:51;2.22;;;0.52;;
75766;SDS011;64378;55.596;13.014;2023-02-25T18:32:17;2.78;;;0.40;;
75766;SDS011;64378;55.596;13.014;2023-02-25T18:34:43;3.43;;;0.40;;
75766;SDS011;64378;55.596;13.014;2023-02-25T18:37:10;3.70;;;0.60;;
75766;SDS011;64378;55.596;13.014;2023-02-25T18:39:38;1.95;;;0.40;;
75766;SDS011;64378;55.596;13.014;2023-02-25T18:42:04;3.47;;;0.50;;
75766;SDS011;64378;55.596;13.014;2023-02-25T18:44:29;4.10;;;0.53;;
75766;SDS011;64378;55.596;13.014;2023-02-25T18:46:55;4.40;;;0.63;;
75766;SDS011;64378;55.596;13.014;2023-02-25T18:49:20;3.60;;;0.70;;